createdAt,value
2022-09-16T00:01:34.745Z,7.13
2022-09-16T00:06:36.272Z,7.00
2022-09-16T00:11:37.840Z,6.78
2022-09-16T00:16:39.348Z,7.10
2022-09-16T00:21:40.919Z,7.15
2022-09-16T00:26:43.188Z,7.32
2022-09-16T00:31:44.725Z,8.02
2022-09-16T00:36:46.228Z,7.78
2022-09-16T00:41:47.708Z,7.45
2022-09-16T00:46:49.674Z,7.75
2022-09-16T00:51:54.401Z,8.20
2022-09-16T00:56:59.233Z,8.25
2022-09-16T01:02:06.722Z,8.73
2022-09-16T01:07:08.411Z,7.93
2022-09-16T01:12:09.903Z,7.75
2022-09-16T01:17:14.237Z,7.65
2022-09-16T01:22:43.850Z,8.38
2022-09-16T01:28:22.037Z,8.60
2022-09-16T01:33:45.564Z,8.68
2022-09-16T01:38:56.052Z,8.95
2022-09-16T01:44:01.179Z,7.90
2022-09-16T01:49:16.050Z,8.20
2022-09-16T01:54:34.272Z,9.05
2022-09-16T01:59:53.208Z,9.20
2022-09-16T02:04:57.502Z,9.38
2022-09-16T02:10:06.695Z,9.63
2022-09-16T02:15:11.427Z,9.70
2022-09-16T02:20:17.526Z,9.05
2022-09-16T02:25:19.934Z,9.55
2022-09-16T02:30:23.179Z,9.60
2022-09-16T02:35:28.041Z,9.32
2022-09-16T02:40:35.089Z,9.23
2022-09-16T02:45:39.846Z,9.70
2022-09-16T02:51:09.683Z,8.88
2022-09-16T02:56:24.581Z,9.30
2022-09-16T03:01:27.875Z,9.25
2022-09-16T03:06:30.066Z,9.43
2022-09-16T03:11:31.534Z,8.70
2022-09-16T03:16:41.594Z,9.13
2022-09-16T03:22:13.087Z,9.38
2022-09-16T03:27:23.146Z,9.35
2022-09-16T03:32:30.809Z,9.50
2022-09-16T03:37:35.424Z,9.10
2022-09-16T03:42:40.136Z,10.13
2022-09-16T03:47:43.110Z,9.98
2022-09-16T03:52:44.607Z,9.30
2022-09-16T03:57:46.077Z,9.23
2022-09-16T04:02:47.615Z,10.05
2022-09-16T04:07:50.041Z,9.20
2022-09-16T04:12:51.502Z,9.30
2022-09-16T04:17:53.009Z,9.65
2022-09-16T04:22:54.543Z,9.38
2022-09-16T04:27:55.999Z,9.27
2022-09-16T04:32:57.603Z,8.93
2022-09-16T04:37:59.068Z,8.23
2022-09-16T04:43:00.525Z,8.95
2022-09-16T04:48:02.135Z,7.63
2022-09-16T04:53:03.624Z,7.20
2022-09-16T04:58:05.094Z,6.60
2022-09-16T05:03:07.552Z,6.63
2022-09-16T05:08:09.077Z,5.32
2022-09-16T05:13:10.552Z,4.70
2022-09-16T05:18:12.032Z,5.28
2022-09-16T05:23:13.550Z,5.82
2022-09-16T05:28:15.042Z,5.15
2022-09-16T05:33:16.591Z,5.45
2022-09-16T05:38:18.042Z,5.45
2022-09-16T05:43:19.507Z,5.68
2022-09-16T05:48:22.471Z,5.05
2022-09-16T05:53:25.541Z,5.80
2022-09-16T05:58:28.454Z,5.90
2022-09-16T06:03:30.027Z,5.43
2022-09-16T06:08:34.170Z,5.85
2022-09-16T06:13:35.740Z,6.13
2022-09-16T06:18:38.059Z,5.68
2022-09-16T06:23:40.351Z,5.95
2022-09-16T06:28:42.352Z,6.20
2022-09-16T06:33:44.637Z,5.68
2022-09-16T06:38:46.930Z,5.47
2022-09-16T06:43:51.155Z,5.57
2022-09-16T06:49:04.304Z,5.40
2022-09-16T06:54:08.303Z,6.63
2022-09-16T06:59:11.117Z,5.72
2022-09-16T07:04:15.715Z,5.80
2022-09-16T07:09:18.050Z,5.82
2022-09-16T07:14:19.511Z,5.22
2022-09-16T07:19:21.329Z,5.85
2022-09-16T07:24:22.843Z,5.55
2022-09-16T07:29:24.639Z,5.15
2022-09-16T07:34:26.120Z,4.75
2022-09-16T07:39:27.763Z,4.43
2022-09-16T07:44:29.521Z,4.50
2022-09-16T07:49:31.104Z,4.18
2022-09-16T07:54:32.689Z,5.15
2022-09-16T07:59:34.163Z,4.22
2022-09-16T08:04:35.636Z,4.05
2022-09-16T08:09:48.577Z,3.85
2022-09-16T08:14:52.173Z,3.45
2022-09-16T08:19:53.673Z,3.58
2022-09-16T08:24:55.168Z,3.58
2022-09-16T08:29:56.646Z,3.55
2022-09-16T08:34:58.524Z,3.50
2022-09-16T08:40:00.167Z,3.60
2022-09-16T08:45:31.259Z,2.92
2022-09-16T08:50:37.609Z,3.08
2022-09-16T08:55:42.565Z,3.42
2022-09-16T09:00:47.341Z,3.10
2022-09-16T09:05:54.930Z,2.80
2022-09-16T09:11:23.861Z,2.90
2022-09-16T09:16:46.462Z,2.78
2022-09-16T09:21:51.981Z,2.55
2022-09-16T09:27:14.392Z,3.00
2022-09-16T09:32:49.852Z,2.55
2022-09-16T09:38:22.545Z,2.58
2022-09-16T09:43:33.047Z,2.20
2022-09-16T09:49:00.796Z,2.30
2022-09-16T09:54:12.872Z,1.97
2022-09-16T09:59:23.387Z,1.98
2022-09-16T10:04:25.083Z,2.22
2022-09-16T10:09:26.773Z,2.03
2022-09-16T10:14:33.750Z,1.80
2022-09-16T10:19:48.722Z,1.92
2022-09-16T10:25:02.137Z,1.73
2022-09-16T10:30:03.574Z,1.92
2022-09-16T10:35:09.043Z,1.98
2022-09-16T10:40:17.364Z,1.90
2022-09-16T10:45:25.879Z,1.40
2022-09-16T10:50:28.192Z,1.80
2022-09-16T10:55:37.773Z,1.77
2022-09-16T11:00:49.406Z,1.88
2022-09-16T11:06:02.880Z,1.60
2022-09-16T11:11:23.159Z,1.75
2022-09-16T11:16:43.466Z,1.55
2022-09-16T11:21:59.885Z,1.60
2022-09-16T11:27:26.409Z,1.65
2022-09-16T11:32:35.911Z,1.50
2022-09-16T11:38:02.523Z,1.45
2022-09-16T11:43:26.354Z,1.13
2022-09-16T11:48:41.298Z,1.30
2022-09-16T11:53:57.264Z,1.13
2022-09-16T11:59:05.261Z,0.93
2022-09-16T12:04:32.754Z,1.20
2022-09-16T12:09:55.555Z,1.05
2022-09-16T12:15:05.461Z,1.30
2022-09-16T12:20:19.266Z,1.55
2022-09-16T12:25:38.126Z,1.40
2022-09-16T12:30:44.622Z,1.30
2022-09-16T12:36:07.128Z,1.25
2022-09-16T12:41:32.529Z,1.10
2022-09-16T12:46:55.579Z,1.20
2022-09-16T12:52:00.888Z,1.35
2022-09-16T12:57:29.750Z,1.15
2022-09-16T13:02:47.849Z,1.55
2022-09-16T13:07:53.638Z,1.17
2022-09-16T13:12:59.123Z,1.58
2022-09-16T13:18:16.520Z,1.27
2022-09-16T13:23:24.808Z,1.50
2022-09-16T13:28:32.184Z,1.70
2022-09-16T13:33:33.793Z,1.23
2022-09-16T13:38:38.718Z,1.42
2022-09-16T13:43:42.997Z,1.42
2022-09-16T13:49:02.668Z,1.35
2022-09-16T13:54:04.635Z,1.80
2022-09-16T13:59:40.406Z,1.70
2022-09-16T14:05:15.908Z,1.65
2022-09-16T14:10:42.195Z,1.20
2022-09-16T14:15:51.339Z,1.88
2022-09-16T14:21:17.781Z,1.77
2022-09-16T14:26:21.710Z,1.67
2022-09-16T14:31:29.520Z,1.60
2022-09-16T14:36:36.180Z,1.92
2022-09-16T14:41:43.220Z,1.70
2022-09-16T14:47:09.256Z,1.40
2022-09-16T14:52:20.398Z,1.67
2022-09-16T14:57:24.742Z,1.40
2022-09-16T15:02:36.049Z,1.77
2022-09-16T15:07:56.193Z,1.50
2022-09-16T15:13:04.788Z,1.60
2022-09-16T15:18:12.449Z,1.48
2022-09-16T15:23:23.742Z,1.60
2022-09-16T15:28:25.782Z,1.45
2022-09-16T15:33:34.307Z,1.35
2022-09-16T15:38:35.970Z,1.23
2022-09-16T15:43:44.439Z,1.55
2022-09-16T15:53:52.116Z,1.48
2022-09-16T15:59:01.670Z,1.40
2022-09-16T16:04:06.482Z,1.10
2022-09-16T16:09:27.881Z,1.40
2022-09-16T16:14:33.964Z,1.00
2022-09-16T16:19:35.945Z,1.30
2022-09-16T16:24:37.571Z,1.13
2022-09-16T16:29:39.379Z,0.88
2022-09-16T16:34:47.280Z,1.10
2022-09-16T16:39:48.835Z,1.10
2022-09-16T16:44:51.120Z,1.00
2022-09-16T16:49:52.628Z,1.00
2022-09-16T16:54:54.147Z,1.02
2022-09-16T16:59:55.680Z,1.48
2022-09-16T17:04:57.244Z,1.58
2022-09-16T17:09:58.714Z,1.40
2022-09-16T17:15:00.201Z,0.90
2022-09-16T17:20:01.883Z,1.00
2022-09-16T17:25:03.503Z,0.80
2022-09-16T17:30:05.530Z,0.80
2022-09-16T17:35:07.334Z,0.80
2022-09-16T17:40:09.527Z,0.95
2022-09-16T17:45:11.274Z,0.70
2022-09-16T17:50:14.031Z,0.50
2022-09-16T17:55:15.785Z,0.70
2022-09-16T18:00:18.076Z,0.40
2022-09-16T18:05:19.656Z,0.57
2022-09-16T18:10:23.338Z,1.20
2022-09-16T18:15:25.450Z,3.33
2022-09-16T18:20:27.062Z,0.65
2022-09-16T18:25:29.000Z,0.70
2022-09-16T18:30:30.601Z,0.50
2022-09-16T18:35:37.034Z,0.60
2022-09-16T18:40:39.687Z,0.47
2022-09-16T18:45:41.334Z,0.70
2022-09-16T18:50:43.093Z,0.50
2022-09-16T18:55:44.621Z,0.38
2022-09-16T19:00:49.039Z,0.90
2022-09-16T19:05:56.957Z,0.80
2022-09-16T19:11:02.626Z,0.70
2022-09-16T19:16:04.269Z,0.60
2022-09-16T19:21:06.200Z,0.70
2022-09-16T19:26:07.819Z,0.70
2022-09-16T19:31:12.877Z,0.60
2022-09-16T19:36:19.245Z,0.73
2022-09-16T19:41:23.892Z,0.70
2022-09-16T19:46:26.734Z,0.93
2022-09-16T19:51:29.068Z,0.70
2022-09-16T19:56:32.891Z,0.80
2022-09-16T20:01:36.224Z,0.82
2022-09-16T20:06:42.339Z,0.60
2022-09-16T20:11:46.055Z,1.25
2022-09-16T20:16:49.194Z,1.17
2022-09-16T20:21:50.752Z,1.00
2022-09-16T20:26:54.771Z,1.10
2022-09-16T20:31:56.359Z,0.80
2022-09-16T20:36:57.937Z,1.10
2022-09-16T20:41:59.569Z,1.05
2022-09-16T20:47:02.044Z,1.00
2022-09-16T20:52:03.562Z,1.05
2022-09-16T20:57:05.358Z,1.20
2022-09-16T21:02:08.956Z,0.88
2022-09-16T21:07:12.191Z,0.70
2022-09-16T21:12:16.318Z,0.82
2022-09-16T21:17:19.870Z,0.75
2022-09-16T21:22:22.514Z,0.90
2022-09-16T21:27:24.111Z,1.00
2022-09-16T21:32:25.933Z,1.10
2022-09-16T21:37:27.740Z,1.10
2022-09-16T21:42:29.439Z,1.20
2022-09-16T21:47:32.186Z,1.40
2022-09-16T21:52:33.901Z,1.02
2022-09-16T21:57:35.425Z,0.93
2022-09-16T22:02:37.007Z,1.10
2022-09-16T22:07:39.636Z,1.10
2022-09-16T22:12:41.201Z,0.90
2022-09-16T22:17:43.503Z,0.90
2022-09-16T22:22:45.021Z,0.95
2022-09-16T22:27:46.524Z,1.10
2022-09-16T22:32:48.151Z,1.10
2022-09-16T22:37:49.829Z,0.90
2022-09-16T22:42:51.362Z,0.70
2022-09-16T22:47:52.883Z,0.80
2022-09-16T22:52:54.402Z,1.35
2022-09-16T22:57:55.992Z,1.00
2022-09-16T23:02:57.473Z,0.93
2022-09-16T23:07:58.963Z,0.90
2022-09-16T23:13:00.868Z,0.90
2022-09-16T23:18:02.377Z,0.90
2022-09-16T23:23:04.423Z,0.90
2022-09-16T23:28:05.935Z,0.75
2022-09-16T23:33:07.463Z,1.00
2022-09-16T23:38:08.954Z,1.50
2022-09-16T23:43:10.491Z,0.75
2022-09-16T23:48:13.323Z,1.05
2022-09-16T23:53:14.813Z,1.00
2022-09-16T23:58:16.587Z,1.20
